createdAt,value
2023-01-17T00:02:07.350Z,66.69
2023-01-17T00:04:52.938Z,66.20
2023-01-17T00:07:40.545Z,66.27
2023-01-17T00:10:10.763Z,65.53
2023-01-17T00:12:39.974Z,64.79
2023-01-17T00:15:09.106Z,64.28
2023-01-17T00:17:36.839Z,63.49
2023-01-17T00:20:22.231Z,62.79
2023-01-17T00:23:07.720Z,62.49
2023-01-17T00:25:56.418Z,61.66
2023-01-17T00:28:25.277Z,61.04
2023-01-17T00:30:52.391Z,61.01
2023-01-17T00:33:19.587Z,60.62
2023-01-17T00:35:46.290Z,59.79
2023-01-17T00:38:14.690Z,59.00
2023-01-17T00:40:43.051Z,58.30
2023-01-17T00:43:29.926Z,58.14
2023-01-17T00:46:17.179Z,57.96
2023-01-17T00:49:03.192Z,58.03
2023-01-17T00:51:50.498Z,58.07
2023-01-17T00:54:36.732Z,58.38
2023-01-17T00:57:23.652Z,58.43
2023-01-17T01:00:09.062Z,58.58
2023-01-17T01:02:56.790Z,58.82
2023-01-17T01:05:42.709Z,58.99
2023-01-17T01:08:39.354Z,59.42
2023-01-17T01:11:26.840Z,58.92
2023-01-17T01:14:12.716Z,58.88
2023-01-17T01:16:58.215Z,58.80
2023-01-17T01:19:45.198Z,58.81
2023-01-17T01:22:30.533Z,58.82
2023-01-17T01:25:15.909Z,59.13
2023-01-17T01:28:01.204Z,59.03
2023-01-17T01:30:46.632Z,58.84
2023-01-17T01:33:21.364Z,59.27
2023-01-17T01:35:52.480Z,59.58
2023-01-17T01:38:21.857Z,59.80
2023-01-17T01:40:52.113Z,59.97
2023-01-17T01:43:21.469Z,59.99
2023-01-17T01:45:54.100Z,60.18
2023-01-17T01:48:34.356Z,60.35
2023-01-17T01:51:07.221Z,60.27
2023-01-17T01:53:38.353Z,60.50
2023-01-17T01:56:11.928Z,60.68
2023-01-17T01:58:41.776Z,60.87
2023-01-17T02:01:10.434Z,60.96
2023-01-17T02:03:40.866Z,60.85
2023-01-17T02:06:20.291Z,60.88
2023-01-17T02:08:48.662Z,60.49
2023-01-17T02:11:16.553Z,60.51
2023-01-17T02:13:44.478Z,60.62
2023-01-17T02:16:24.161Z,60.42
2023-01-17T02:19:01.095Z,60.28
2023-01-17T02:21:35.751Z,60.46
2023-01-17T02:24:47.254Z,60.37
2023-01-17T02:27:26.775Z,60.34
2023-01-17T02:30:21.779Z,60.24
2023-01-17T02:33:02.421Z,60.22
2023-01-17T02:35:39.165Z,60.24
2023-01-17T02:38:25.417Z,60.30
2023-01-17T02:40:58.009Z,60.06
2023-01-17T02:43:26.505Z,60.09
2023-01-17T02:45:55.581Z,59.93
2023-01-17T02:48:27.084Z,59.95
2023-01-17T02:51:29.797Z,59.70
2023-01-17T02:54:18.246Z,59.91
2023-01-17T02:56:54.686Z,60.34
2023-01-17T02:59:34.819Z,60.91
2023-01-17T03:02:14.894Z,61.17
2023-01-17T03:04:48.598Z,61.76
2023-01-17T03:07:20.759Z,62.57
2023-01-17T03:09:53.684Z,63.01
2023-01-17T03:12:22.070Z,63.43
2023-01-17T03:14:49.706Z,63.72
2023-01-17T03:17:18.868Z,63.72
2023-01-17T03:19:46.500Z,63.78
2023-01-17T03:22:14.214Z,63.81
2023-01-17T03:24:41.876Z,63.92
2023-01-17T03:27:09.730Z,63.42
2023-01-17T03:29:37.407Z,63.08
2023-01-17T03:32:05.516Z,63.07
2023-01-17T03:34:34.525Z,63.21
2023-01-17T03:37:02.201Z,62.74
2023-01-17T03:39:30.001Z,62.56
2023-01-17T03:41:57.726Z,62.46
2023-01-17T03:44:25.411Z,62.32
2023-01-17T03:46:53.155Z,62.06
2023-01-17T03:49:20.881Z,61.40
2023-01-17T03:51:49.921Z,61.06
2023-01-17T03:54:17.583Z,60.79
2023-01-17T03:56:45.239Z,60.55
2023-01-17T03:59:13.311Z,60.60
2023-01-17T04:01:41.181Z,60.56
2023-01-17T04:04:08.902Z,60.58
2023-01-17T04:06:36.562Z,60.98
2023-01-17T04:09:05.607Z,61.10
2023-01-17T04:11:33.253Z,61.30
2023-01-17T04:14:00.943Z,61.75
2023-01-17T04:16:31.232Z,61.85
2023-01-17T04:18:59.191Z,62.61
2023-01-17T04:21:26.904Z,62.88
2023-01-17T04:23:54.616Z,63.07
2023-01-17T04:26:23.638Z,63.13
2023-01-17T04:28:51.391Z,63.43
2023-01-17T04:31:19.183Z,63.17
2023-01-17T04:33:46.942Z,63.09
2023-01-17T04:36:14.697Z,63.48
2023-01-17T04:38:42.677Z,63.83
2023-01-17T04:41:10.360Z,63.49
2023-01-17T04:43:39.394Z,63.47
2023-01-17T04:46:10.910Z,63.75
2023-01-17T04:48:38.730Z,63.88
2023-01-17T04:51:07.445Z,63.81
2023-01-17T04:53:35.290Z,63.78
2023-01-17T04:56:03.099Z,63.90
2023-01-17T04:58:31.023Z,63.77
2023-01-17T05:01:04.157Z,63.65
2023-01-17T05:03:32.620Z,64.17
2023-01-17T05:06:00.412Z,64.96
2023-01-17T05:08:28.815Z,65.65
2023-01-17T05:10:56.910Z,66.15
2023-01-17T05:13:24.609Z,66.74
2023-01-17T05:15:52.650Z,67.42
2023-01-17T05:18:21.656Z,67.89
2023-01-17T05:20:49.430Z,67.69
2023-01-17T05:23:17.619Z,68.01
2023-01-17T05:25:45.282Z,67.89
2023-01-17T05:28:14.016Z,67.72
2023-01-17T05:30:41.862Z,67.73
2023-01-17T05:33:10.288Z,67.49
2023-01-17T05:35:39.405Z,67.13
2023-01-17T05:38:07.140Z,67.16
2023-01-17T05:40:34.972Z,67.05
2023-01-17T05:43:04.187Z,67.04
2023-01-17T05:45:33.998Z,67.09
2023-01-17T05:48:02.183Z,67.09
2023-01-17T05:50:32.025Z,67.18
2023-01-17T05:53:02.881Z,67.51
2023-01-17T05:55:31.421Z,67.72
2023-01-17T05:57:59.614Z,67.43
2023-01-17T06:00:27.742Z,67.24
2023-01-17T06:02:57.188Z,67.17
2023-01-17T06:05:26.326Z,66.93
2023-01-17T06:07:54.815Z,67.05
2023-01-17T06:10:24.731Z,66.68
2023-01-17T06:13:01.828Z,66.69
2023-01-17T06:15:29.760Z,66.45
2023-01-17T06:17:57.444Z,66.44
2023-01-17T06:20:25.250Z,66.48
2023-01-17T06:22:52.957Z,66.14
2023-01-17T06:25:20.578Z,66.19
2023-01-17T06:27:50.432Z,66.06
2023-01-17T06:30:18.548Z,65.99
2023-01-17T06:32:46.323Z,65.69
2023-01-17T06:35:14.065Z,65.26
2023-01-17T06:37:41.861Z,64.92
2023-01-17T06:40:11.145Z,65.06
2023-01-17T06:42:38.911Z,65.42
2023-01-17T06:45:09.481Z,65.31
2023-01-17T06:47:39.074Z,65.31
2023-01-17T06:50:08.152Z,65.31
2023-01-17T06:52:36.264Z,65.40
2023-01-17T06:55:03.982Z,64.78
2023-01-17T06:57:31.658Z,64.27
2023-01-17T06:59:59.337Z,64.74
2023-01-17T07:02:28.399Z,65.05
2023-01-17T07:04:56.108Z,65.00
2023-01-17T07:07:24.888Z,64.46
2023-01-17T07:09:52.551Z,64.23
2023-01-17T07:12:20.281Z,63.95
2023-01-17T07:14:47.941Z,63.80
2023-01-17T07:17:15.648Z,63.94
2023-01-17T07:19:44.915Z,63.88
2023-01-17T07:22:12.635Z,63.80
2023-01-17T07:24:40.312Z,63.36
2023-01-17T07:27:08.656Z,63.21
2023-01-17T07:29:36.458Z,63.09
2023-01-17T07:32:04.397Z,63.50
2023-01-17T07:34:32.154Z,63.70
2023-01-17T07:37:01.933Z,63.51
2023-01-17T07:39:29.709Z,63.38
2023-01-17T07:41:57.378Z,63.18
2023-01-17T07:44:25.152Z,63.44
2023-01-17T07:46:52.920Z,63.38
2023-01-17T07:49:20.562Z,63.27
2023-01-17T07:51:48.508Z,63.04
2023-01-17T07:54:17.573Z,62.90
2023-01-17T07:56:47.091Z,62.83
2023-01-17T07:59:14.888Z,62.68
2023-01-17T08:01:42.647Z,62.32
2023-01-17T08:04:11.446Z,62.86
2023-01-17T08:06:43.145Z,63.17
2023-01-17T08:09:10.994Z,63.19
2023-01-17T08:11:40.088Z,62.99
2023-01-17T08:14:07.777Z,62.69
2023-01-17T08:16:35.516Z,62.76
2023-01-17T08:19:03.280Z,63.17
2023-01-17T08:21:30.970Z,62.78
2023-01-17T08:23:58.667Z,63.16
2023-01-17T08:26:26.358Z,63.32
2023-01-17T08:29:00.322Z,63.04
2023-01-17T08:31:28.443Z,62.94
2023-01-17T08:33:57.532Z,62.58
2023-01-17T08:36:27.475Z,62.87
2023-01-17T08:38:55.751Z,62.83
2023-01-17T08:41:24.609Z,61.82
2023-01-17T08:43:53.300Z,62.33
2023-01-17T08:46:22.957Z,62.44
2023-01-17T08:48:54.144Z,62.12
2023-01-17T08:51:21.851Z,62.45
2023-01-17T08:53:49.669Z,62.31
2023-01-17T08:56:17.405Z,62.13
2023-01-17T08:58:45.305Z,62.42
2023-01-17T09:01:13.144Z,62.08
2023-01-17T09:03:42.525Z,61.82
2023-01-17T09:06:12.467Z,61.87
2023-01-17T09:08:40.255Z,61.83
2023-01-17T09:11:09.714Z,61.82
2023-01-17T09:13:37.829Z,61.43
2023-01-17T09:16:06.820Z,60.93
2023-01-17T09:18:36.116Z,60.76
2023-01-17T09:21:13.205Z,60.65
2023-01-17T09:23:41.649Z,60.31
2023-01-17T09:26:20.672Z,60.06
2023-01-17T09:28:48.719Z,60.09
2023-01-17T09:31:17.575Z,59.46
2023-01-17T09:33:45.599Z,58.98
2023-01-17T09:36:15.198Z,59.19
2023-01-17T09:38:43.009Z,59.49
2023-01-17T09:41:22.945Z,59.65
2023-01-17T09:43:54.882Z,59.96
2023-01-17T09:46:26.633Z,59.01
2023-01-17T09:49:00.361Z,58.09
2023-01-17T09:51:29.637Z,57.89
2023-01-17T09:53:57.558Z,58.01
2023-01-17T09:56:30.277Z,57.71
2023-01-17T09:59:21.035Z,57.58
2023-01-17T10:01:56.808Z,57.09
2023-01-17T10:04:44.647Z,56.47
2023-01-17T10:07:27.330Z,56.04
2023-01-17T10:10:10.895Z,55.52
2023-01-17T10:12:44.603Z,55.35
2023-01-17T10:15:29.578Z,55.82
2023-01-17T10:18:07.343Z,54.90
2023-01-17T10:24:04.644Z,54.15
2023-01-17T10:26:34.089Z,53.99
2023-01-17T10:29:06.098Z,53.88
2023-01-17T10:31:40.625Z,53.51
2023-01-17T10:34:16.279Z,52.86
2023-01-17T10:36:49.381Z,52.40
2023-01-17T10:39:22.186Z,52.57
2023-01-17T10:41:56.225Z,52.55
2023-01-17T10:44:30.578Z,52.51
2023-01-17T10:47:07.603Z,52.34
2023-01-17T10:49:35.423Z,52.65
2023-01-17T10:52:13.516Z,52.39
2023-01-17T10:55:09.542Z,52.67
2023-01-17T10:57:40.553Z,53.14
2023-01-17T11:00:31.022Z,53.18
2023-01-17T11:02:59.578Z,53.21
2023-01-17T11:05:29.363Z,53.53
2023-01-17T11:08:02.158Z,53.07
2023-01-17T11:10:44.484Z,52.73
2023-01-17T11:13:26.021Z,52.74
2023-01-17T11:15:57.801Z,53.06
2023-01-17T11:18:28.670Z,53.11
2023-01-17T11:21:12.206Z,53.19
2023-01-17T11:23:42.636Z,53.77
2023-01-17T11:26:13.778Z,53.38
2023-01-17T11:28:42.316Z,53.90
2023-01-17T11:31:25.977Z,53.87
2023-01-17T11:34:09.550Z,53.81
2023-01-17T11:36:37.277Z,54.16
2023-01-17T11:39:07.895Z,54.66
2023-01-17T11:41:39.714Z,54.88
2023-01-17T11:44:22.689Z,54.66
2023-01-17T11:46:50.555Z,54.83
2023-01-17T11:49:25.701Z,55.08
2023-01-17T11:51:56.120Z,55.21
2023-01-17T11:54:28.348Z,55.50
2023-01-17T11:57:00.540Z,55.90
2023-01-17T11:59:31.577Z,56.22
2023-01-17T12:02:35.663Z,55.86
2023-01-17T12:05:15.654Z,55.58
2023-01-17T12:07:54.897Z,55.82
2023-01-17T12:10:26.561Z,56.27
2023-01-17T12:13:25.659Z,56.03
2023-01-17T12:16:22.095Z,55.50
2023-01-17T12:18:59.100Z,55.09
2023-01-17T12:21:39.193Z,54.83
2023-01-17T12:24:26.317Z,54.50
2023-01-17T12:27:02.423Z,54.71
2023-01-17T12:29:48.939Z,54.87
2023-01-17T12:32:32.349Z,54.50
2023-01-17T12:35:06.517Z,54.27
2023-01-17T12:37:38.948Z,53.79
2023-01-17T12:40:18.361Z,53.15
2023-01-17T12:42:52.898Z,53.05
2023-01-17T12:45:26.925Z,52.82
2023-01-17T12:48:01.429Z,52.87
2023-01-17T12:50:35.435Z,53.06
2023-01-17T12:53:13.442Z,52.94
2023-01-17T12:55:48.229Z,52.13
2023-01-17T12:58:21.941Z,52.94
2023-01-17T13:01:00.574Z,52.29
2023-01-17T13:03:42.876Z,52.67
2023-01-17T13:06:29.060Z,52.59
2023-01-17T13:09:01.625Z,52.30
2023-01-17T13:11:34.738Z,52.16
2023-01-17T13:14:03.168Z,52.17
2023-01-17T13:16:41.960Z,52.16
2023-01-17T13:19:20.045Z,51.12
2023-01-17T13:21:49.458Z,50.91
2023-01-17T13:24:33.765Z,50.16
2023-01-17T13:27:14.642Z,49.94
2023-01-17T13:29:58.494Z,49.62
2023-01-17T13:32:49.827Z,49.00
2023-01-17T13:35:23.511Z,49.46
2023-01-17T13:38:10.318Z,49.95
2023-01-17T13:40:50.728Z,50.36
2023-01-17T13:43:22.174Z,49.99
2023-01-17T13:45:55.292Z,49.93
2023-01-17T13:48:33.235Z,50.01
2023-01-17T13:51:03.157Z,50.06
2023-01-17T13:53:49.193Z,50.59
2023-01-17T13:56:26.290Z,50.02
2023-01-17T13:59:02.533Z,49.92
2023-01-17T14:01:53.752Z,50.18
2023-01-17T14:04:24.415Z,50.20
2023-01-17T14:07:01.054Z,50.65
2023-01-17T14:09:52.561Z,50.67
2023-01-17T14:12:32.080Z,50.38
2023-01-17T14:15:02.183Z,50.35
2023-01-17T14:17:59.158Z,49.83
2023-01-17T14:20:44.277Z,49.82
2023-01-17T14:23:38.655Z,49.89
2023-01-17T14:26:42.666Z,50.21
2023-01-17T14:29:44.267Z,50.68
2023-01-17T14:32:14.255Z,51.13
2023-01-17T14:34:43.724Z,51.05
2023-01-17T14:37:19.508Z,50.87
2023-01-17T14:39:49.042Z,51.24
2023-01-17T14:42:19.383Z,50.79
2023-01-17T14:44:51.976Z,51.03
2023-01-17T14:47:20.257Z,51.13
2023-01-17T14:49:47.962Z,51.93
2023-01-17T14:52:18.974Z,51.93
2023-01-17T14:54:51.602Z,51.65
2023-01-17T14:57:27.621Z,51.92
2023-01-17T15:00:14.860Z,51.65
2023-01-17T15:02:44.779Z,51.68
2023-01-17T15:05:17.268Z,51.71
2023-01-17T15:07:50.546Z,51.80
2023-01-17T15:10:21.875Z,52.09
2023-01-17T15:12:49.820Z,51.59
2023-01-17T15:15:39.852Z,51.82
2023-01-17T15:18:19.486Z,51.65
2023-01-17T15:20:55.970Z,52.05
2023-01-17T15:23:30.514Z,52.32
2023-01-17T15:25:59.803Z,52.65
2023-01-17T15:28:30.741Z,53.07
2023-01-17T15:31:11.241Z,52.51
2023-01-17T15:33:42.473Z,52.39
2023-01-17T15:36:14.866Z,52.13
2023-01-17T15:38:51.597Z,52.19
2023-01-17T15:41:23.911Z,51.96
2023-01-17T15:43:51.913Z,52.58
2023-01-17T15:46:25.865Z,52.34
2023-01-17T15:48:53.734Z,52.69
2023-01-17T15:51:41.510Z,51.94
2023-01-17T15:54:37.109Z,51.83
2023-01-17T15:57:18.083Z,52.01
2023-01-17T15:59:48.880Z,51.42
2023-01-17T16:02:38.823Z,51.35
2023-01-17T16:05:41.880Z,50.95
2023-01-17T16:08:44.959Z,50.88
2023-01-17T16:11:15.707Z,50.18
2023-01-17T16:13:47.213Z,49.90
2023-01-17T16:16:18.219Z,49.50
2023-01-17T16:18:47.574Z,49.83
2023-01-17T16:21:21.530Z,49.98
2023-01-17T16:23:49.490Z,49.79
2023-01-17T16:26:18.691Z,49.66
2023-01-17T16:28:46.732Z,49.49
2023-01-17T16:31:14.688Z,49.05
2023-01-17T16:33:43.505Z,48.81
2023-01-17T16:36:15.046Z,49.13
2023-01-17T16:38:43.332Z,48.73
2023-01-17T16:41:12.101Z,48.69
2023-01-17T16:43:41.270Z,48.36
2023-01-17T16:46:11.971Z,48.41
2023-01-17T16:48:39.832Z,48.50
2023-01-17T16:51:08.828Z,48.52
2023-01-17T16:53:37.233Z,48.12
2023-01-17T16:56:11.928Z,49.13
2023-01-17T16:58:42.137Z,48.84
2023-01-17T17:01:11.281Z,48.00
2023-01-17T17:03:39.242Z,48.23
2023-01-17T17:06:07.411Z,48.32
2023-01-17T17:08:35.500Z,48.38
2023-01-17T17:11:13.004Z,47.86
2023-01-17T17:13:42.830Z,48.29
2023-01-17T17:16:15.965Z,48.00
2023-01-17T17:18:44.499Z,48.29
2023-01-17T17:21:12.280Z,47.83
2023-01-17T17:23:39.989Z,48.09
2023-01-17T17:26:07.692Z,48.40
2023-01-17T17:28:35.704Z,48.88
2023-01-17T17:31:10.488Z,49.02
2023-01-17T17:33:38.657Z,49.45
2023-01-17T17:36:10.110Z,49.32
2023-01-17T17:38:50.676Z,49.72
2023-01-17T17:41:20.962Z,49.65
2023-01-17T17:43:49.023Z,49.23
2023-01-17T17:46:18.265Z,49.43
2023-01-17T17:48:46.055Z,49.39
2023-01-17T17:51:23.700Z,49.32
2023-01-17T17:53:52.670Z,48.78
2023-01-17T17:56:21.127Z,49.09
2023-01-17T17:58:49.504Z,49.30
2023-01-17T18:01:18.714Z,49.33
2023-01-17T18:03:46.733Z,49.44
2023-01-17T18:06:17.479Z,49.62
2023-01-17T18:08:45.350Z,50.08
2023-01-17T18:11:17.739Z,50.34
2023-01-17T18:13:47.595Z,50.29
2023-01-17T18:16:19.204Z,50.39
2023-01-17T18:18:50.876Z,50.55
2023-01-17T18:21:23.692Z,50.87
2023-01-17T18:23:58.578Z,51.15
2023-01-17T18:26:28.977Z,51.19
2023-01-17T18:28:58.759Z,51.42
2023-01-17T18:31:31.909Z,51.59
2023-01-17T18:34:01.388Z,51.95
2023-01-17T18:36:29.427Z,52.10
2023-01-17T18:38:58.175Z,52.45
2023-01-17T18:41:29.757Z,52.44
2023-01-17T18:43:57.662Z,52.52
2023-01-17T18:46:27.899Z,52.64
2023-01-17T18:48:57.780Z,52.89
2023-01-17T18:51:26.456Z,52.94
2023-01-17T18:53:54.948Z,52.97
2023-01-17T18:56:24.026Z,52.73
2023-01-17T18:58:52.118Z,52.82
2023-01-17T19:01:22.270Z,52.78
2023-01-17T19:03:54.089Z,52.52
2023-01-17T19:06:24.794Z,52.44
2023-01-17T19:08:52.696Z,52.34
2023-01-17T19:11:21.823Z,52.49
2023-01-17T19:13:50.368Z,52.41
2023-01-17T19:16:20.862Z,52.44
2023-01-17T19:18:48.777Z,52.77
2023-01-17T19:21:20.706Z,52.27
2023-01-17T19:23:49.085Z,52.46
2023-01-17T19:26:22.882Z,52.27
2023-01-17T19:28:51.408Z,52.12
2023-01-17T19:31:29.138Z,52.36
2023-01-17T19:33:58.662Z,52.44
2023-01-17T19:36:33.115Z,52.71
2023-01-17T19:39:15.259Z,52.83
2023-01-17T19:41:45.148Z,52.71
2023-01-17T19:44:28.197Z,52.67
2023-01-17T19:46:59.124Z,52.67
2023-01-17T19:49:29.668Z,52.52
2023-01-17T19:51:58.863Z,52.80
2023-01-17T19:54:26.626Z,52.95
2023-01-17T19:57:08.261Z,53.42
2023-01-17T19:59:43.191Z,53.40
2023-01-17T20:02:11.542Z,53.70
2023-01-17T20:04:41.968Z,54.07
2023-01-17T20:07:10.985Z,53.72
2023-01-17T20:09:38.828Z,54.29
2023-01-17T20:12:19.303Z,54.59
2023-01-17T20:14:54.310Z,54.78
2023-01-17T20:17:22.420Z,54.95
2023-01-17T20:19:50.141Z,54.60
2023-01-17T20:22:27.785Z,54.96
2023-01-17T20:25:01.560Z,54.84
2023-01-17T20:27:29.451Z,54.52
2023-01-17T20:30:14.888Z,54.20
2023-01-17T20:33:02.137Z,54.70
2023-01-17T20:35:29.855Z,54.52
2023-01-17T20:37:59.218Z,54.70
2023-01-17T20:40:36.522Z,54.46
2023-01-17T20:43:04.820Z,54.74
2023-01-17T20:45:32.521Z,54.70
2023-01-17T20:48:02.577Z,55.20
2023-01-17T20:50:30.223Z,55.77
2023-01-17T20:52:59.347Z,55.50
2023-01-17T20:55:29.180Z,55.14
2023-01-17T20:57:59.767Z,55.12
2023-01-17T21:00:27.486Z,55.38
2023-01-17T21:02:55.205Z,55.28
2023-01-17T21:05:22.955Z,55.16
2023-01-17T21:07:53.403Z,55.22
2023-01-17T21:10:29.614Z,54.99
2023-01-17T21:12:57.333Z,55.06
2023-01-17T21:15:34.887Z,55.14
2023-01-17T21:18:09.041Z,55.37
2023-01-17T21:20:41.745Z,55.43
2023-01-17T21:23:17.894Z,55.37
2023-01-17T21:25:58.375Z,55.34
2023-01-17T21:28:35.482Z,55.50
2023-01-17T21:31:20.486Z,55.32
2023-01-17T21:33:48.961Z,55.52
2023-01-17T21:36:18.213Z,55.50
2023-01-17T21:38:51.710Z,55.24
2023-01-17T21:41:28.023Z,55.31
2023-01-17T21:43:58.117Z,55.43
2023-01-17T21:46:29.645Z,55.44
2023-01-17T21:48:57.867Z,55.36
2023-01-17T21:51:46.326Z,55.81
2023-01-17T21:54:19.862Z,55.71
2023-01-17T21:57:06.169Z,55.62
2023-01-17T21:59:40.128Z,55.56
2023-01-17T22:04:51.960Z,55.64
2023-01-17T22:07:29.071Z,55.54
2023-01-17T22:09:57.437Z,55.69
2023-01-17T22:12:26.583Z,55.65
2023-01-17T22:14:54.943Z,56.06
2023-01-17T22:17:23.503Z,55.81
2023-01-17T22:22:39.115Z,56.10
2023-01-17T22:25:12.894Z,55.97
2023-01-17T22:27:42.001Z,55.91
2023-01-17T22:30:16.467Z,55.78
2023-01-17T22:32:44.502Z,55.78
2023-01-17T22:35:27.237Z,56.21
2023-01-17T22:37:55.272Z,56.25
2023-01-17T22:40:23.628Z,56.32
2023-01-17T22:42:55.580Z,55.98
2023-01-17T22:45:27.336Z,56.01
2023-01-17T22:47:55.052Z,56.02
2023-01-17T22:50:23.947Z,56.14
2023-01-17T22:52:51.639Z,56.15
2023-01-17T22:55:23.925Z,56.72
2023-01-17T22:57:53.216Z,56.53
2023-01-17T23:00:31.706Z,56.70
2023-01-17T23:03:06.158Z,56.81
2023-01-17T23:05:33.864Z,56.73
2023-01-17T23:08:02.474Z,56.79
2023-01-17T23:10:47.979Z,56.48
2023-01-17T23:13:17.012Z,56.67
2023-01-17T23:16:04.994Z,56.45
2023-01-17T23:18:50.256Z,56.57
2023-01-17T23:21:18.700Z,56.61
2023-01-17T23:23:49.331Z,56.63
2023-01-17T23:26:20.208Z,56.55
2023-01-17T23:28:51.011Z,56.57
2023-01-17T23:31:23.400Z,56.56
2023-01-17T23:33:51.078Z,56.50
2023-01-17T23:36:30.109Z,56.58
2023-01-17T23:39:02.430Z,56.44
2023-01-17T23:42:02.655Z,56.54
2023-01-17T23:44:36.080Z,56.41
2023-01-17T23:47:03.790Z,56.41
2023-01-17T23:49:31.958Z,56.78
2023-01-17T23:51:59.759Z,56.68
2023-01-17T23:54:35.146Z,56.50
2023-01-17T23:57:03.653Z,56.36
2023-01-17T23:59:31.258Z,56.61
